首页
METAR-TAF:

METAR-TAF

机场 :

喀土穆国际机场

喀土穆, 苏丹共和国

纬度: 15-36N, 经度: 032-33E, 海拔: 382米

当前天气观测

该预报发布于29分钟前的11:30 UTC
风速2节,风向多变
温度 40°C
湿度 13%
气压 1008 hPa
能见度10公里或以上
少量云层高于5000英尺

METAR: HSSS 191130Z VRB02KT 9999 FEW050 40/06 Q1008 NOSIG

时间: 14:59 (11:59 UTC)

预报

该预报发布于59分钟前的11:00 UTC
预报有效从19日的 12点(UTC)到 20日的 18点(UTC)
风速6节,风向北转东北,有时为16节阵风
能见度10公里或以上
1500米以下无云,无积雨云
短暂存在
从 19日的 12点(UTC)到 19日的 16点(UTC)
能见度10公里或以上
散云层高于4000英尺
几率 30% :
短暂存在
从 19日的 18点(UTC)到 19日的 22点(UTC)
风速10节,风向东转东南,有时为20节阵风
能見度: 6000
少量云层高于4000英尺, 积雨云.
散云层高于14000英尺
雷暴, 雨
几率 30% :
短暂存在
从 20日的 10点(UTC)到 20日的 14点(UTC)
风速3节,风向多变
能见度10公里或以上
散云层高于4000英尺
几率 30% :
短暂存在
从 20日的 14点(UTC)到 20日的 18点(UTC)
风速10节,风向东转东南,有时为20节阵风
能見度: 6000
少量云层高于4000英尺, 积雨云.
散云层高于14000英尺
雷暴, 雨

TAF: HSSS 191100Z 1912/2018 03006G16KT CAVOK TEMPO 1912/1916 9999 SCT040 PROB30 TEMPO 1918/1922 12010G20KT 6000 TSRA FEW040CB SCT140 PROB30 TEMPO 2010/2014 VRB03KT 9999 SCT040 PROB30 TEMPO 2014/2018 12010G20KT 6000 TSRA FEW040CB SCT140

超过4000个机场的气象观测和天气预报(METAR&TAF报告)。

可查询的气象台以黄色和红色小点在地图上表示。

将鼠标移到小点上方,可查看气象台名称。

然后点击查看天气观测和预报。

如需切换地图:点击带黑十字的绿色按钮放大地图;点击带横线的绿色按钮缩小地图;或者点击绿色箭头查看邻近地区的地图。


METAR-TAF: